Time;durP1;ratioP1;P1;durP2;ratioP2;P2;SDS_P1;SDS_P2;PMS_P1;PMS_P2;Temp;Humidity;BMP_temperature;BMP_pressure;BME280_temperature;BME280_humidity;BME280_pressure;Samples;Min_cycle;Max_cycle;Signal;HPM_P1;HPM_P2
2022/07/20 00:00:32;;;;;;;3.40;1.13;;;;;;;16.84;84.73;99904.50;5025893;28;20316;-61
2022/07/20 00:03:05;;;;;;;3.07;1.53;;;;;;;16.82;86.33;99899.28;5024702;28;20336;-62
2022/07/20 00:05:36;;;;;;;2.03;0.90;;;;;;;17.04;85.76;99891.19;5024677;28;20670;-61
2022/07/20 00:08:07;;;;;;;4.33;1.03;;;;;;;17.23;84.62;99897.25;5025257;28;20612;-61
2022/07/20 00:13:34;;;;;;;4.00;0.73;;;;;;;17.16;83.56;99890.56;4995235;28;20534;-61
2022/07/20 00:16:07;;;;;;;4.00;0.50;;;;;;;16.95;81.87;99886.38;5024914;28;20344;-59
2022/07/20 00:18:37;;;;;;;1.13;0.40;;;;;;;16.98;83.58;99883.56;5025263;28;20347;-61
2022/07/20 00:21:08;;;;;;;3.40;0.60;;;;;;;17.05;83.44;99908.75;5025461;28;20359;-60
2022/07/20 00:23:39;;;;;;;2.33;0.60;;;;;;;16.79;84.00;99892.34;5025395;28;20315;-60
2022/07/20 00:26:10;;;;;;;3.73;0.70;;;;;;;16.54;83.92;99907.63;5025939;28;20544;-62
2022/07/20 00:28:40;;;;;;;0.83;0.70;;;;;;;16.35;84.85;99903.22;5025344;28;20336;-62
2022/07/20 00:31:13;;;;;;;1.87;0.60;;;;;;;16.19;86.22;99894.28;5025303;28;20295;-61
2022/07/20 00:33:46;;;;;;;2.70;0.60;;;;;;;16.12;85.33;99879.66;5025655;28;20388;-60
2022/07/20 00:36:18;;;;;;;1.93;0.60;;;;;;;16.15;85.92;99890.09;5025353;28;20588;-60
2022/07/20 00:38:48;;;;;;;2.33;0.83;;;;;;;16.28;86.52;99891.22;5025504;28;20295;-60
2022/07/20 00:41:20;;;;;;;1.93;0.70;;;;;;;16.29;85.55;99889.44;5025331;28;20296;-60
2022/07/20 00:44:02;;;;;;;0.80;0.50;;;;;;;16.30;85.99;99885.88;5025193;28;20339;-60
2022/07/20 00:46:37;;;;;;;5.47;0.83;;;;;;;16.35;86.66;99887.38;5025141;28;20288;-60
2022/07/20 00:49:09;;;;;;;1.77;0.80;;;;;;;16.03;84.89;99837.94;5025047;28;20762;-60
2022/07/20 00:51:42;;;;;;;1.63;0.63;;;;;;;16.37;85.00;99888.19;5025342;28;20311;-60
2022/07/20 00:54:13;;;;;;;1.10;0.67;;;;;;;16.57;85.29;99889.88;5025017;28;20284;-60
2022/07/20 00:56:44;;;;;;;2.37;0.70;;;;;;;16.72;85.26;99885.63;5024956;28;20316;-60
2022/07/20 00:59:15;;;;;;;2.23;0.70;;;;;;;16.81;85.08;99901.06;5024972;28;20343;-59
2022/07/20 01:01:47;;;;;;;1.63;0.80;;;;;;;16.58;84.95;99909.19;5025183;28;20308;-62
2022/07/20 01:04:18;;;;;;;3.27;0.97;;;;;;;16.60;85.17;99894.16;5024844;28;20346;-59
2022/07/20 01:06:49;;;;;;;0.60;0.60;;;;;;;16.77;85.68;99899.50;5025204;28;20296;-61
2022/07/20 01:09:20;;;;;;;4.60;1.07;;;;;;;16.81;84.67;99890.50;5024521;28;20511;-59
2022/07/20 01:11:51;;;;;;;1.80;0.60;;;;;;;16.80;84.59;99885.31;5024368;28;20331;-61
2022/07/20 01:14:21;;;;;;;2.67;0.70;;;;;;;16.94;84.82;99882.00;5025318;28;20441;-61
2022/07/20 01:16:54;;;;;;;1.10;0.63;;;;;;;16.95;83.38;99871.38;5026308;28;20288;-61
2022/07/20 01:19:25;;;;;;;3.13;0.90;;;;;;;17.06;83.65;99868.22;5028825;28;20303;-61
2022/07/20 01:21:57;;;;;;;1.73;0.73;;;;;;;16.95;83.07;99865.25;5028452;28;20276;-60
2022/07/20 01:24:28;;;;;;;1.30;0.77;;;;;;;16.57;84.75;99841.53;5028543;28;20292;-61
2022/07/20 01:26:58;;;;;;;6.83;0.97;;;;;;;16.96;84.24;99869.59;5028520;28;20287;-59
2022/07/20 01:29:29;;;;;;;7.30;2.30;;;;;;;17.21;83.98;99872.72;5028310;28;20322;-60
2022/07/20 01:32:00;;;;;;;1.27;0.80;;;;;;;17.21;82.84;99878.00;5027980;28;20288;-60
2022/07/20 01:34:30;;;;;;;2.07;0.83;;;;;;;17.25;82.50;99878.72;5028561;28;20307;-60
2022/07/20 01:37:03;;;;;;;3.50;0.80;;;;;;;17.28;82.58;99883.00;5028326;28;20303;-60
2022/07/20 01:39:33;;;;;;;0.70;0.70;;;;;;;17.18;81.76;99875.53;5028220;28;20296;-62
2022/07/20 01:42:04;;;;;;;2.07;0.90;;;;;;;17.27;82.06;99881.25;5028598;28;20306;-60
2022/07/20 01:44:35;;;;;;;1.30;0.80;;;;;;;17.34;83.12;99888.78;5028632;28;20353;-60
2022/07/20 01:47:06;;;;;;;4.63;1.00;;;;;;;17.30;82.66;99889.03;5028248;28;20520;-61
2022/07/20 01:49:36;;;;;;;10.37;1.40;;;;;;;17.20;82.51;99884.22;5028276;28;20419;-61
2022/07/20 01:52:09;;;;;;;1.10;0.90;;;;;;;17.25;82.99;99884.84;5028533;28;20316;-61
2022/07/20 01:54:39;;;;;;;1.53;0.70;;;;;;;17.48;82.04;99884.63;5028306;28;20312;-60
2022/07/20 01:57:10;;;;;;;1.27;0.90;;;;;;;17.56;82.46;99870.06;5028640;28;20277;-61
2022/07/20 01:59:40;;;;;;;2.53;1.17;;;;;;;17.96;81.09;99870.66;5028530;28;20292;-61
2022/07/20 02:02:11;;;;;;;4.40;0.90;;;;;;;17.99;79.65;99875.78;5028366;28;20362;-61
2022/07/20 02:04:42;;;;;;;1.37;1.10;;;;;;;18.07;79.06;99863.03;5028274;28;20776;-62
2022/07/20 02:07:14;;;;;;;1.30;1.10;;;;;;;18.38;79.77;99871.94;5028094;28;20290;-62
2022/07/20 02:09:45;;;;;;;2.50;1.00;;;;;;;18.75;78.95;99881.34;5027726;28;20338;-60
2022/07/20 02:12:15;;;;;;;1.73;1.07;;;;;;;18.87;77.15;99874.53;5027845;28;20637;-61
2022/07/20 02:14:46;;;;;;;13.90;2.60;;;;;;;19.09;78.02;99875.94;5027157;28;20371;-60
2022/07/20 02:17:17;;;;;;;3.40;1.40;;;;;;;19.21;75.45;99883.16;5027595;28;20295;-61
2022/07/20 02:19:47;;;;;;;2.10;1.03;;;;;;;19.24;75.65;99882.13;5027062;28;20287;-62
2022/07/20 02:22:19;;;;;;;4.23;1.10;;;;;;;19.07;74.61;99883.09;5027899;28;20577;-60
2022/07/20 02:24:50;;;;;;;2.30;1.20;;;;;;;19.08;75.45;99882.19;5027491;28;20302;-60
2022/07/20 02:27:21;;;;;;;2.77;1.40;;;;;;;18.94;75.71;99881.16;5027231;28;20284;-60
2022/07/20 02:29:51;;;;;;;2.33;1.40;;;;;;;19.04;75.16;99880.63;5027266;28;20320;-61
2022/07/20 02:32:22;;;;;;;2.67;1.57;;;;;;;19.12;75.56;99878.38;5026956;28;20327;-61
2022/07/20 02:34:52;;;;;;;3.97;1.43;;;;;;;19.16;74.55;99879.94;5027305;28;20284;-60
2022/07/20 02:37:25;;;;;;;3.27;1.40;;;;;;;19.00;75.83;99881.78;5027200;28;20293;-60
2022/07/20 02:39:55;;;;;;;2.77;1.67;;;;;;;18.91;75.41;99881.34;5027276;28;20295;-60
2022/07/20 02:42:26;;;;;;;2.13;1.57;;;;;;;18.76;75.12;99874.25;5027099;28;20657;-62
2022/07/20 02:44:57;;;;;;;2.20;1.80;;;;;;;18.69;75.84;99875.50;5027198;28;20411;-62
2022/07/20 02:47:27;;;;;;;4.37;1.97;;;;;;;18.61;76.03;99878.59;5026528;28;20292;-61
2022/07/20 02:49:58;;;;;;;5.57;2.40;;;;;;;18.51;75.55;99867.66;5026973;28;20315;-59
2022/07/20 02:52:30;;;;;;;2.87;1.80;;;;;;;18.56;75.86;99874.50;5026968;28;20344;-61
2022/07/20 02:55:01;;;;;;;2.70;1.50;;;;;;;18.62;75.34;99858.28;5026608;28;20312;-60
2022/07/20 02:57:31;;;;;;;19.87;2.00;;;;;;;18.39;75.66;99873.63;5026114;28;20556;-60
2022/07/20 03:00:02;;;;;;;9.70;1.87;;;;;;;18.40;76.53;99856.00;5026858;28;20287;-61
2022/07/20 03:02:33;;;;;;;3.40;1.50;;;;;;;18.29;77.19;99867.13;5026969;28;20291;-61
2022/07/20 03:05:04;;;;;;;9.37;2.30;;;;;;;18.43;78.09;99869.88;5026884;28;20281;-60
2022/07/20 03:07:36;;;;;;;4.70;1.60;;;;;;;18.46;76.69;99853.84;5026604;28;20284;-59
2022/07/20 03:10:08;;;;;;;5.47;1.57;;;;;;;18.27;76.07;99858.44;5026566;28;20500;-61
2022/07/20 03:12:38;;;;;;;5.03;1.67;;;;;;;18.15;76.25;99859.13;5026498;28;20664;-60
2022/07/20 03:15:10;;;;;;;6.90;1.97;;;;;;;18.14;77.26;99852.09;5026614;28;20295;-62
2022/07/20 03:17:45;;;;;;;15.77;2.33;;;;;;;17.96;76.54;99853.97;5026567;28;20285;-61
2022/07/20 03:20:20;;;;;;;6.10;1.70;;;;;;;17.78;77.19;99853.13;5026714;28;20324;-60
2022/07/20 03:22:53;;;;;;;4.00;2.00;;;;;;;17.80;77.54;99851.28;5026796;28;20312;-61
2022/07/20 03:25:24;;;;;;;7.33;2.20;;;;;;;17.87;78.52;99839.44;5026979;28;20314;-59
2022/07/20 03:27:56;;;;;;;3.30;1.73;;;;;;;17.76;77.61;99860.28;5026360;28;20279;-60
2022/07/20 03:30:27;;;;;;;2.80;1.80;;;;;;;17.57;77.69;99845.38;5026153;28;20600;-61
2022/07/20 03:32:58;;;;;;;2.47;1.90;;;;;;;17.51;77.07;99853.63;5026472;28;20289;-59
2022/07/20 03:35:29;;;;;;;2.90;2.43;;;;;;;17.52;79.21;99857.94;5026397;28;20340;-60
2022/07/20 03:38:02;;;;;;;5.73;3.10;;;;;;;17.11;79.69;99808.13;5026105;28;20296;-60
2022/07/20 03:40:32;;;;;;;3.70;2.47;;;;;;;17.12;79.67;99853.84;5025884;28;20291;-60
2022/07/20 03:43:03;;;;;;;5.87;3.20;;;;;;;17.03;80.31;99852.53;5026197;28;20304;-61
2022/07/20 03:45:34;;;;;;;4.23;3.17;;;;;;;17.13;80.96;99853.78;5026373;28;20535;-60
2022/07/20 03:48:06;;;;;;;5.57;3.73;;;;;;;17.24;81.49;99862.00;5026035;28;20284;-60
2022/07/20 03:50:37;;;;;;;4.37;3.10;;;;;;;17.35;79.75;99858.00;5025433;28;20371;-60
2022/07/20 03:53:09;;;;;;;12.43;3.73;;;;;;;17.23;81.09;99855.03;5025862;28;20318;-60
2022/07/20 03:55:40;;;;;;;4.70;3.10;;;;;;;17.33;79.58;99854.56;5026024;28;20344;-61
2022/07/20 03:58:11;;;;;;;7.03;3.60;;;;;;;17.38;80.81;99810.28;5026208;28;20355;-60
2022/07/20 04:00:42;;;;;;;9.50;3.67;;;;;;;17.79;78.80;99852.16;5026289;28;20315;-60
2022/07/20 04:03:12;;;;;;;7.50;3.50;;;;;;;17.37;79.42;99869.31;5026255;28;20284;-60
2022/07/20 04:05:43;;;;;;;6.03;3.40;;;;;;;17.35;80.97;99866.75;5026199;28;20308;-61
2022/07/20 04:08:15;;;;;;;10.87;3.20;;;;;;;17.77;79.38;99864.59;5026285;28;20355;-60
2022/07/20 04:10:46;;;;;;;4.67;3.43;;;;;;;18.04;78.47;99863.16;5025532;28;20301;-62
2022/07/20 04:13:17;;;;;;;5.57;3.60;;;;;;;18.07;77.27;99852.47;5025702;28;20292;-59
2022/07/20 04:15:47;;;;;;;7.33;4.20;;;;;;;17.87;80.21;99876.44;5025708;28;20277;-59
2022/07/20 04:18:18;;;;;;;8.53;3.90;;;;;;;17.55;78.89;99865.75;5025510;28;20280;-61
2022/07/20 04:20:49;;;;;;;8.33;4.40;;;;;;;17.57;80.68;99858.59;5025476;28;20284;-61
2022/07/20 04:23:22;;;;;;;16.77;5.27;;;;;;;17.91;80.36;99888.56;5025481;28;20300;-59
2022/07/20 04:25:52;;;;;;;5.77;4.40;;;;;;;17.80;79.01;99896.22;5025520;28;20363;-60
2022/07/20 04:28:23;;;;;;;9.60;4.40;;;;;;;17.43;79.66;99882.22;5025788;28;20292;-60
2022/07/20 04:30:54;;;;;;;10.47;4.70;;;;;;;17.35;80.06;99884.41;5025249;28;20316;-60
2022/07/20 04:33:24;;;;;;;7.93;4.40;;;;;;;17.47;80.18;99883.75;5025437;28;20292;-60
2022/07/20 04:35:55;;;;;;;6.30;3.83;;;;;;;17.24;79.74;99887.56;5025573;28;20356;-61
2022/07/20 04:38:28;;;;;;;5.90;4.00;;;;;;;17.18;80.54;99883.44;5025324;28;20281;-59
2022/07/20 04:40:58;;;;;;;10.70;4.10;;;;;;;17.30;79.16;99886.38;5025389;28;20351;-60
2022/07/20 04:43:29;;;;;;;6.73;4.77;;;;;;;17.23;80.47;99831.25;5025416;28;20284;-59
2022/07/20 04:46:00;;;;;;;10.90;4.97;;;;;;;17.52;79.36;99873.81;5025310;28;20293;-61
2022/07/20 04:48:31;;;;;;;7.07;4.50;;;;;;;17.63;80.49;99889.97;5025376;28;20300;-58
2022/07/20 04:51:02;;;;;;;11.77;4.20;;;;;;;17.73;78.48;99894.78;5025190;28;20383;-59
2022/07/20 04:53:34;;;;;;;10.03;4.33;;;;;;;17.54;78.52;99895.72;5028693;28;20309;-59
2022/07/20 04:56:05;;;;;;;12.13;4.93;;;;;;;17.46;80.21;99872.34;5029183;28;20388;-60
2022/07/20 04:58:36;;;;;;;5.33;4.03;;;;;;;17.55;78.45;99905.38;5029367;28;20352;-60
2022/07/20 05:01:06;;;;;;;6.07;3.70;;;;;;;17.47;77.83;99886.38;5028780;28;20295;-60
2022/07/20 05:03:37;;;;;;;5.13;3.50;;;;;;;17.36;78.56;99907.22;5028204;28;20287;-59
2022/07/20 05:06:10;;;;;;;9.13;5.07;;;;;;;17.31;79.37;99899.53;5029120;28;20689;-59
2022/07/20 05:08:43;;;;;;;6.20;4.40;;;;;;;17.34;78.92;99901.16;5029211;28;20317;-60
2022/07/20 05:11:13;;;;;;;7.20;4.37;;;;;;;17.36;78.84;99899.31;5029082;28;20334;-59
2022/07/20 05:13:44;;;;;;;4.93;3.77;;;;;;;17.17;78.68;99902.88;5029020;28;20355;-61
2022/07/20 05:16:15;;;;;;;16.30;4.80;;;;;;;17.00;81.00;99879.09;5029168;28;20348;-60
2022/07/20 05:18:46;;;;;;;7.80;4.60;;;;;;;17.03;80.24;99900.03;5028658;28;20351;-58
2022/07/20 05:21:17;;;;;;;8.77;4.00;;;;;;;17.07;80.06;99898.94;5028954;28;20578;-59
2022/07/20 05:23:50;;;;;;;8.13;4.37;;;;;;;17.42;80.26;99906.91;5029015;28;20588;-61
2022/07/20 05:26:20;;;;;;;13.43;3.97;;;;;;;17.48;78.25;99905.75;5028173;28;20946;-60
2022/07/20 05:28:51;;;;;;;5.50;3.43;;;;;;;17.13;78.51;99903.94;5028608;28;20314;-59
2022/07/20 05:31:22;;;;;;;7.27;3.80;;;;;;;17.12;79.64;99899.56;5028106;28;20316;-60
2022/07/20 05:33:53;;;;;;;4.70;3.77;;;;;;;16.93;79.25;99910.19;5028381;28;20484;-59
2022/07/20 05:36:24;;;;;;;5.20;3.63;;;;;;;16.95;79.01;99907.47;5028592;28;20281;-60
2022/07/20 05:38:56;;;;;;;5.50;3.63;;;;;;;16.88;78.78;99912.19;5028507;28;20320;-60
2022/07/20 05:41:28;;;;;;;5.70;3.93;;;;;;;17.10;79.52;99912.00;5028416;28;20303;-61
2022/07/20 05:43:59;;;;;;;9.00;3.80;;;;;;;17.24;79.15;99904.25;5028336;28;20432;-59
2022/07/20 05:46:30;;;;;;;4.60;3.47;;;;;;;17.24;77.91;99898.97;5028288;28;20288;-60
2022/07/20 05:49:00;;;;;;;7.30;3.30;;;;;;;17.13;77.49;99898.66;5028582;28;20276;-60
2022/07/20 05:51:31;;;;;;;7.87;3.67;;;;;;;16.96;78.67;99893.34;5028294;28;20305;-60
2022/07/20 05:54:05;;;;;;;5.57;3.80;;;;;;;16.33;78.74;99836.50;5000035;28;20446;-60
2022/07/20 05:56:36;;;;;;;5.77;3.47;;;;;;;16.55;79.73;99888.25;5027743;28;20317;-59
2022/07/20 05:59:06;;;;;;;14.83;4.07;;;;;;;16.76;79.70;99903.03;5027128;28;20288;-60
2022/07/20 06:01:38;;;;;;;7.43;4.10;;;;;;;16.55;80.21;99899.66;5028136;28;20495;-60
2022/07/20 06:04:08;;;;;;;7.37;4.10;;;;;;;16.38;81.24;99905.69;5027590;28;20340;-59
2022/07/20 06:06:39;;;;;;;5.47;3.30;;;;;;;16.07;81.30;99903.56;5027831;28;20445;-60
2022/07/20 06:09:11;;;;;;;4.83;3.07;;;;;;;16.26;80.77;99898.34;5027725;28;20330;-59
2022/07/20 06:11:51;;;;;;;7.63;3.63;;;;;;;16.49;79.92;99904.34;5027664;28;20303;-61
2022/07/20 06:14:22;;;;;;;4.07;3.07;;;;;;;16.26;79.91;99906.25;5027806;28;20348;-62
2022/07/20 06:16:52;;;;;;;6.50;3.83;;;;;;;16.20;81.89;99909.19;5027546;28;20561;-60
2022/07/20 06:19:23;;;;;;;10.33;4.33;;;;;;;16.04;82.91;99902.88;5027764;28;20285;-60
2022/07/20 06:21:54;;;;;;;7.57;3.87;;;;;;;15.84;82.57;99875.63;5027613;28;20344;-60
2022/07/20 06:24:26;;;;;;;7.03;3.47;;;;;;;15.88;83.36;99914.09;5027397;28;20295;-61
2022/07/20 06:26:57;;;;;;;8.53;4.27;;;;;;;15.66;84.01;99905.38;5027236;28;20373;-60
2022/07/20 06:29:27;;;;;;;7.90;3.90;;;;;;;15.54;84.92;99910.25;5027617;28;20288;-59
2022/07/20 06:31:58;;;;;;;10.60;4.80;;;;;;;15.50;85.31;99913.94;5027263;28;20439;-60
2022/07/20 06:34:45;;;;;;;7.97;3.30;;;;;;;15.53;85.57;99918.22;5027316;28;20445;-60
2022/07/20 06:37:16;;;;;;;4.57;3.50;;;;;;;15.44;85.79;99911.53;5027448;28;20281;-59
2022/07/20 06:39:48;;;;;;;9.77;4.20;;;;;;;15.34;85.82;99912.84;5027362;28;20273;-59
2022/07/20 06:42:20;;;;;;;5.30;3.63;;;;;;;15.31;86.85;99894.56;5027339;28;20295;-61
2022/07/20 06:44:51;;;;;;;7.13;4.57;;;;;;;15.39;86.79;99888.97;5026989;28;20289;-60
2022/07/20 06:47:22;;;;;;;9.93;4.43;;;;;;;15.48;86.70;99889.44;5026952;28;20290;-59
2022/07/20 06:49:53;;;;;;;8.60;3.97;;;;;;;15.47;87.04;99892.97;5027146;28;20430;-61
2022/07/20 06:52:23;;;;;;;15.90;4.63;;;;;;;15.43;87.22;99894.06;5027151;28;20323;-59
2022/07/20 06:54:55;;;;;;;7.33;4.40;;;;;;;15.42;87.95;99910.75;5026896;28;20514;-58
2022/07/20 06:57:26;;;;;;;13.37;4.93;;;;;;;15.31;87.78;99905.94;5024098;28;20316;-61
2022/07/20 06:59:56;;;;;;;7.00;4.40;;;;;;;15.09;88.12;99895.44;5026909;28;20367;-59
2022/07/20 07:02:27;;;;;;;8.03;5.57;;;;;;;14.94;89.34;99903.97;5027130;28;20288;-58
2022/07/20 07:04:58;;;;;;;7.40;4.47;;;;;;;14.80;89.65;99891.38;5026928;28;20567;-62
2022/07/20 07:07:28;;;;;;;8.77;5.20;;;;;;;14.78;90.50;99905.50;5027143;28;20561;-60
2022/07/20 07:10:01;;;;;;;7.53;5.10;;;;;;;14.71;90.71;99898.75;5025740;28;20541;-59
2022/07/20 07:12:31;;;;;;;10.23;5.90;;;;;;;14.56;91.06;99902.84;5026727;28;20817;-58
2022/07/20 07:15:02;;;;;;;9.07;6.17;;;;;;;14.49;91.33;99902.19;5025929;28;20292;-59
2022/07/20 07:17:33;;;;;;;11.00;6.27;;;;;;;14.44;91.88;99902.34;5026297;28;20365;-58
2022/07/20 07:20:05;;;;;;;13.80;6.13;;;;;;;14.37;92.11;99897.38;5026181;28;20304;-60
2022/07/20 07:22:35;;;;;;;11.70;6.23;;;;;;;14.31;92.56;99902.88;5026573;28;20288;-59
2022/07/20 07:25:09;;;;;;;9.43;6.27;;;;;;;14.27;92.06;99898.66;5026710;28;20572;-60
2022/07/20 07:27:40;;;;;;;11.90;6.93;;;;;;;14.24;92.58;99897.84;5026453;28;20446;-60
2022/07/20 07:30:11;;;;;;;12.40;6.70;;;;;;;14.22;92.93;99904.91;5026400;28;20545;-61
2022/07/20 07:32:42;;;;;;;13.07;7.40;;;;;;;14.29;93.08;99894.19;5025919;28;20296;-60
2022/07/20 07:35:12;;;;;;;13.13;7.00;;;;;;;14.26;93.14;99894.31;5026252;28;20384;-61
2022/07/20 07:37:43;;;;;;;11.73;6.93;;;;;;;14.24;93.37;99887.34;5026227;28;20572;-60
2022/07/20 07:40:15;;;;;;;11.13;5.97;;;;;;;14.34;93.73;99894.88;5025196;28;20762;-59
2022/07/20 07:42:46;;;;;;;13.00;5.33;;;;;;;14.39;93.50;99900.81;5024886;28;20487;-59
2022/07/20 07:45:17;;;;;;;8.73;4.73;;;;;;;14.47;93.02;99898.75;5025088;28;20632;-61
2022/07/20 07:47:48;;;;;;;5.87;4.27;;;;;;;14.48;93.03;99895.22;5024645;28;20346;-61
2022/07/20 07:50:18;;;;;;;7.17;4.63;;;;;;;14.49;91.91;99907.44;5025589;28;20280;-60
2022/07/20 07:52:49;;;;;;;8.53;4.47;;;;;;;14.65;92.40;99912.97;5023945;28;20456;-60
2022/07/20 07:55:27;;;;;;;9.43;4.83;;;;;;;14.65;92.21;99903.34;5026029;28;20291;-59
2022/07/20 07:57:58;;;;;;;8.27;4.40;;;;;;;14.70;92.20;99915.44;5025977;28;20280;-60
2022/07/20 08:00:35;;;;;;;7.57;3.97;;;;;;;14.70;92.93;99910.19;5025596;28;20273;-60
2022/07/20 08:03:06;;;;;;;6.90;4.13;;;;;;;14.69;92.55;99908.47;5025599;28;20355;-61
2022/07/20 08:05:38;;;;;;;6.80;3.17;;;;;;;14.67;92.36;99908.53;5023385;28;20368;-62
2022/07/20 08:08:10;;;;;;;6.47;3.57;;;;;;;14.67;92.32;99917.28;5025764;28;20276;-59
2022/07/20 08:10:43;;;;;;;4.27;2.90;;;;;;;14.48;92.03;99913.63;5025966;28;20299;-60
2022/07/20 08:13:13;;;;;;;5.93;3.63;;;;;;;14.51;92.62;99920.53;5025448;28;20590;-60
2022/07/20 08:15:44;;;;;;;8.43;4.00;;;;;;;14.45;92.48;99926.84;5024762;28;20284;-61
2022/07/20 08:18:21;;;;;;;5.20;3.53;;;;;;;14.30;92.65;99901.16;5023052;28;20296;-60
2022/07/20 08:20:51;;;;;;;7.67;3.50;;;;;;;14.43;92.30;99918.19;5025123;28;20303;-57
2022/07/20 08:23:22;;;;;;;6.10;3.77;;;;;;;14.31;92.77;99918.66;5024874;28;20292;-60
2022/07/20 08:25:56;;;;;;;7.90;3.87;;;;;;;14.27;93.83;99935.44;5025102;28;20280;-61
2022/07/20 08:28:26;;;;;;;8.87;3.77;;;;;;;14.17;94.21;99933.13;5025367;28;20285;-60
2022/07/20 08:30:57;;;;;;;8.97;4.60;;;;;;;14.18;94.93;99934.88;5025107;28;20296;-60
2022/07/20 08:33:28;;;;;;;10.07;4.13;;;;;;;13.94;95.21;99904.22;5025082;28;20305;-61
2022/07/20 08:35:58;;;;;;;8.60;4.20;;;;;;;13.92;95.17;99906.91;5025488;28;20302;-59
2022/07/20 08:38:29;;;;;;;9.17;3.77;;;;;;;14.13;95.28;99941.22;5023601;28;20302;-60
2022/07/20 08:41:02;;;;;;;6.07;4.07;;;;;;;14.10;95.83;99931.66;5023593;28;20300;-59
2022/07/20 08:43:33;;;;;;;6.10;2.77;;;;;;;14.10;95.28;99936.91;5021469;28;20296;-60
2022/07/20 08:46:04;;;;;;;12.37;4.47;;;;;;;14.09;95.95;99943.06;5024760;28;20897;-59
2022/07/20 08:48:37;;;;;;;6.20;3.60;;;;;;;13.88;95.81;99904.44;5025065;28;20285;-60
2022/07/20 08:51:08;;;;;;;6.00;3.60;;;;;;;14.07;95.92;99939.66;5024852;28;20368;-59
2022/07/20 08:53:38;;;;;;;13.50;3.53;;;;;;;14.03;95.94;99935.44;5025014;28;20319;-59
2022/07/20 08:56:19;;;;;;;8.50;3.53;;;;;;;14.03;95.94;99935.44;5024924;28;20584;-60
2022/07/20 08:58:49;;;;;;;10.83;3.80;;;;;;;14.07;95.85;99936.16;5024447;28;20053;-60
2022/07/20 09:01:27;;;;;;;7.40;3.43;;;;;;;14.02;95.28;99933.69;5023118;28;20489;-59
2022/07/20 09:04:09;;;;;;;5.97;2.70;;;;;;;13.90;95.50;99924.47;5024845;28;20288;-59
2022/07/20 09:06:58;;;;;;;14.97;3.50;;;;;;;13.85;95.48;99936.91;5024934;28;20292;-59
2022/07/20 09:09:29;;;;;;;4.23;2.83;;;;;;;13.56;96.00;99909.06;5025137;28;20292;-58
2022/07/20 09:12:01;;;;;;;6.37;2.90;;;;;;;13.72;96.24;99941.75;5025023;28;20280;-58
2022/07/20 09:14:42;;;;;;;6.43;2.87;;;;;;;13.72;96.32;99933.00;5025048;28;20289;-58
2022/07/20 09:17:18;;;;;;;4.77;2.43;;;;;;;13.71;96.48;99945.28;5024750;28;20295;-58
2022/07/20 09:20:01;;;;;;;4.17;2.47;;;;;;;13.72;96.66;99941.75;5024822;28;20295;-59
2022/07/20 09:22:34;;;;;;;5.33;2.07;;;;;;;13.72;96.63;99944.38;5024863;28;20354;-59
2022/07/20 09:25:14;;;;;;;3.20;1.77;;;;;;;13.46;96.93;99908.50;5024826;28;20295;-58
2022/07/20 09:27:46;;;;;;;3.70;2.13;;;;;;;13.62;97.33;99940.34;5025135;28;20125;-58
2022/07/20 09:30:19;;;;;;;5.72;2.65;;;;;;;13.61;97.50;99946.50;5024699;28;20281;-58
2022/07/20 09:33:00;;;;;;;3.20;2.10;;;;;;;13.62;97.78;99940.34;5024815;28;20097;-59
2022/07/20 09:35:34;;;;;;;6.82;2.20;;;;;;;13.58;97.69;99938.75;5024901;28;20275;-59
2022/07/20 09:38:08;;;;;;;4.72;2.58;;;;;;;13.54;97.99;99943.22;5025484;28;20053;-59
2022/07/20 09:40:43;;;;;;;5.25;2.33;;;;;;;13.49;98.37;99944.31;5027999;28;20065;-58
2022/07/20 09:43:29;;;;;;;5.68;2.55;;;;;;;13.47;98.62;99954.00;5028153;28;20116;-60
2022/07/20 09:46:12;;;;;;;3.80;2.13;;;;;;;13.36;99.04;99944.69;5027841;28;20052;-60
2022/07/20 09:48:45;;;;;;;5.33;2.17;;;;;;;13.36;98.88;99957.81;5028388;28;20084;-60
2022/07/20 09:51:29;;;;;;;2.50;1.87;;;;;;;13.32;99.18;99950.94;5028116;28;20450;-57
2022/07/20 09:54:03;;;;;;;6.73;2.20;;;;;;;13.28;99.17;99962.47;5026006;28;20312;-60
2022/07/20 09:56:35;;;;;;;2.75;1.77;;;;;;;13.24;99.41;99960.81;5019859;28;20306;-59
2022/07/20 09:59:10;;;;;;;3.38;1.60;;;;;;;13.16;99.43;99952.34;5008236;28;20104;-59
2022/07/20 10:01:44;;;;;;;2.22;1.65;;;;;;;13.14;99.71;99959.38;5008333;28;20042;-60
2022/07/20 10:04:16;;;;;;;8.35;1.73;;;;;;;12.88;100.00;99915.59;5008427;28;20065;-59
2022/07/20 10:06:50;;;;;;;1.55;1.20;;;;;;;13.06;100.00;99956.16;5008370;28;20140;-59
2022/07/20 10:09:21;;;;;;;4.40;1.52;;;;;;;13.02;100.00;99957.16;5008247;28;20302;-61
2022/07/20 10:11:51;;;;;;;1.73;1.40;;;;;;;13.07;100.00;99952.63;5008083;28;20044;-60
2022/07/20 10:14:25;;;;;;;2.92;1.67;;;;;;;13.07;100.00;99969.22;5008073;28;20061;-59
2022/07/20 10:16:57;;;;;;;4.25;1.80;;;;;;;13.06;100.00;99961.41;5007164;28;20172;-60
2022/07/20 10:19:43;;;;;;;6.43;1.85;;;;;;;12.98;100.00;99973.88;5007844;28;20185;-61
2022/07/20 10:22:14;;;;;;;6.72;2.20;;;;;;;12.81;100.00;99954.28;5008390;28;20134;-59
2022/07/20 10:24:46;;;;;;;4.82;1.83;;;;;;;12.93;100.00;99974.91;5008001;28;20056;-60
2022/07/20 10:27:27;;;;;;;3.83;1.70;;;;;;;12.86;100.00;99970.75;5007726;28;20228;-58
2022/07/20 10:30:17;;;;;;;2.97;1.92;;;;;;;12.51;100.00;99912.38;5007756;28;20042;-59
2022/07/20 10:32:59;;;;;;;4.40;1.52;;;;;;;12.91;100.00;99983.72;5007401;28;20054;-61
2022/07/20 10:35:31;;;;;;;5.28;1.67;;;;;;;12.90;100.00;99985.50;5007841;28;20080;-61
2022/07/20 10:38:02;;;;;;;5.50;1.40;;;;;;;12.85;100.00;99984.75;5007870;28;20049;-61
2022/07/20 10:41:31;;;;;;;3.65;1.45;;;;;;;12.89;100.00;99980.28;5007710;28;20062;-59
2022/07/20 10:43:23;;;;;;;1.83;1.00;;;;;;;12.87;100.00;99990.81;5007516;28;20056;-62
2022/07/20 10:45:56;;;;;;;4.50;1.20;;;;;;;12.83;100.00;99991.81;5006867;28;20350;-60
2022/07/20 10:48:27;;;;;;;2.50;1.00;;;;;;;12.83;100.00;99991.81;5005904;28;20066;-60
2022/07/20 10:50:58;;;;;;;1.92;1.10;;;;;;;12.69;100.00;99978.25;5006944;28;20064;-62
2022/07/20 10:53:34;;;;;;;5.53;1.55;;;;;;;12.79;100.00;100005.91;5007213;28;20042;-62
2022/07/20 10:56:11;;;;;;;2.75;1.17;;;;;;;12.71;100.00;99986.94;5007207;28;20370;-60
2022/07/20 10:58:45;;;;;;;3.10;1.00;;;;;;;12.68;100.00;100003.63;5007574;28;20099;-60
2022/07/20 11:01:17;;;;;;;2.85;1.10;;;;;;;12.71;100.00;100000.91;5007253;28;20058;-60
2022/07/20 11:03:49;;;;;;;2.28;1.40;;;;;;;12.66;100.00;99994.09;5007306;28;20124;-62
2022/07/20 11:06:21;;;;;;;1.95;1.23;;;;;;;12.35;100.00;99952.16;5006180;28;20088;-59
2022/07/20 11:08:54;;;;;;;3.97;1.20;;;;;;;12.44;100.00;99972.88;5006033;28;20311;-60
2022/07/20 11:11:28;;;;;;;3.50;1.10;;;;;;;12.63;100.00;100000.28;5007414;28;20046;-61
2022/07/20 11:14:01;;;;;;;2.92;1.30;;;;;;;12.65;100.00;100002.81;5004956;28;20666;-61
2022/07/20 11:16:34;;;;;;;1.88;1.20;;;;;;;12.63;100.00;99999.38;5005895;28;20121;-59
2022/07/20 11:19:07;;;;;;;1.83;1.27;;;;;;;12.62;100.00;100002.94;5006902;28;20062;-61
2022/07/20 11:21:40;;;;;;;5.22;1.52;;;;;;;12.62;100.00;100013.41;5006675;28;20058;-60
2022/07/20 11:24:24;;;;;;;2.67;1.58;;;;;;;12.59;100.00;100018.75;5006614;28;20061;-61
2022/07/20 11:26:55;;;;;;;3.20;1.50;;;;;;;12.57;100.00;99994.34;5006447;28;20081;-60
2022/07/20 11:29:27;;;;;;;3.25;1.80;;;;;;;12.30;100.00;99952.28;5006701;28;20054;-60
2022/07/20 11:32:09;;;;;;;5.13;1.85;;;;;;;12.56;100.00;99995.25;5006510;28;20069;-60
2022/07/20 11:34:46;;;;;;;3.20;2.03;;;;;;;12.64;100.00;100006.38;5006673;28;20251;-60
2022/07/20 11:37:18;;;;;;;3.83;1.77;;;;;;;12.50;100.00;99978.81;5006670;28;20053;-59
2022/07/20 11:39:49;;;;;;;3.72;2.08;;;;;;;12.06;100.00;99899.72;5006360;28;20054;-62
2022/07/20 11:42:20;;;;;;;4.18;2.10;;;;;;;12.70;100.00;100001.81;5006371;28;20275;-62
2022/07/20 11:45:01;;;;;;;3.22;1.70;;;;;;;12.72;100.00;99993.88;5006138;28;20823;-62
2022/07/20 11:47:36;;;;;;;4.25;2.05;;;;;;;12.73;100.00;99995.63;5006395;28;20049;-60
2022/07/20 11:50:09;;;;;;;4.40;2.10;;;;;;;12.76;100.00;99989.44;5006111;28;20523;-61
2022/07/20 11:52:50;;;;;;;3.53;2.10;;;;;;;12.76;100.00;99995.53;5005688;28;20120;-62
2022/07/20 11:55:35;;;;;;;4.97;1.77;;;;;;;12.58;100.00;99980.31;5005403;28;20369;-61
2022/07/20 11:58:05;;;;;;;4.53;1.60;;;;;;;12.74;100.00;99992.09;5005219;28;20062;-61